Time;durP1;ratioP1;P1;durP2;ratioP2;P2;SDS_P1;SDS_P2;PMS_P1;PMS_P2;Temp;Humidity;BMP_temperature;BMP_pressure;BME280_temperature;BME280_humidity;BME280_pressure;Samples;Min_cycle;Max_cycle;Signal;HPM_P1;HPM_P2
2021/08/17 00:01:32;;;;;;;3.83;3.00;;;;;;;;;;4984121;28;24401;-60
2021/08/17 00:03:57;;;;;;;2.83;2.63;;;;;;;;;;4980391;28;24904;-61
2021/08/17 00:06:22;;;;;;;3.40;2.80;;;;;;;;;;4978920;28;24487;-61
2021/08/17 00:08:47;;;;;;;3.45;2.70;;;;;;;;;;4978519;28;24771;-61
2021/08/17 00:11:12;;;;;;;3.70;2.90;;;;;;;;;;4984515;28;24405;-60
2021/08/17 00:13:37;;;;;;;3.28;2.80;;;;;;;;;;4987612;28;24456;-61
2021/08/17 00:16:03;;;;;;;2.83;2.58;;;;;;;;;;4982261;28;24420;-61
2021/08/17 00:18:28;;;;;;;3.00;2.70;;;;;;;;;;4981888;28;25125;-61
2021/08/17 00:20:53;;;;;;;3.20;2.90;;;;;;;;;;4982229;28;24986;-61
2021/08/17 00:23:18;;;;;;;3.20;2.80;;;;;;;;;;4987875;28;24417;-60
2021/08/17 00:25:44;;;;;;;3.20;2.70;;;;;;;;;;4987314;28;24405;-60
2021/08/17 00:28:10;;;;;;;3.33;2.50;;;;;;;;;;4982043;28;24524;-61
2021/08/17 00:30:35;;;;;;;4.60;3.40;;;;;;;;;;4981769;28;24393;-61
2021/08/17 00:33:00;;;;;;;3.33;3.03;;;;;;;;;;4981886;28;24420;-60
2021/08/17 00:35:26;;;;;;;3.70;3.10;;;;;;;;;;4985540;28;24397;-60
2021/08/17 00:37:51;;;;;;;3.50;3.05;;;;;;;;;;4985623;28;24416;-61
2021/08/17 00:40:16;;;;;;;3.72;3.20;;;;;;;;;;4983362;28;24396;-61
2021/08/17 00:42:42;;;;;;;3.40;3.03;;;;;;;;;;4983263;28;24531;-61
2021/08/17 00:45:10;;;;;;;3.58;3.10;;;;;;;;;;4982131;28;24397;-61
2021/08/17 00:47:36;;;;;;;4.25;3.33;;;;;;;;;;4986711;28;24525;-61
2021/08/17 00:50:01;;;;;;;3.67;3.00;;;;;;;;;;4984773;28;24436;-61
2021/08/17 00:52:26;;;;;;;4.73;3.70;;;;;;;;;;4981771;28;24941;-61
2021/08/17 00:54:51;;;;;;;3.92;2.75;;;;;;;;;;4981430;28;24982;-61
2021/08/17 00:57:17;;;;;;;3.77;3.07;;;;;;;;;;4981754;28;24393;-61
2021/08/17 00:59:42;;;;;;;4.68;3.63;;;;;;;;;;4982510;28;24394;-60
2021/08/17 01:02:07;;;;;;;4.00;3.70;;;;;;;;;;4987073;28;24748;-61
2021/08/17 01:04:33;;;;;;;4.43;3.33;;;;;;;;;;4984697;28;24396;-60
2021/08/17 01:07:00;;;;;;;4.80;3.50;;;;;;;;;;4981547;28;24954;-60
2021/08/17 01:09:25;;;;;;;4.50;3.47;;;;;;;;;;4983009;28;24421;-60
2021/08/17 01:11:50;;;;;;;5.18;3.67;;;;;;;;;;4984702;28;24748;-60
2021/08/17 01:14:19;;;;;;;4.45;3.40;;;;;;;;;;4985081;28;24477;-60
2021/08/17 01:16:44;;;;;;;5.38;4.18;;;;;;;;;;4982570;28;25168;-60
2021/08/17 01:19:11;;;;;;;4.43;3.50;;;;;;;;;;4981272;28;24452;-59
2021/08/17 01:21:37;;;;;;;5.17;3.67;;;;;;;;;;4986185;28;24988;-60
2021/08/17 01:24:02;;;;;;;6.00;3.83;;;;;;;;;;4983616;28;24488;-60
2021/08/17 01:26:27;;;;;;;4.60;3.40;;;;;;;;;;4983237;28;24943;-60
2021/08/17 01:28:52;;;;;;;4.30;3.40;;;;;;;;;;4980727;28;25045;-60
2021/08/17 01:31:18;;;;;;;4.78;3.38;;;;;;;;;;4982625;28;24452;-60
2021/08/17 01:33:43;;;;;;;4.20;3.63;;;;;;;;;;4985846;28;24393;-60
2021/08/17 01:36:08;;;;;;;4.35;3.42;;;;;;;;;;4984644;28;24912;-60
2021/08/17 01:38:43;;;;;;;3.57;3.20;;;;;;;;;;4982555;28;24409;-59
2021/08/17 01:41:10;;;;;;;4.07;3.20;;;;;;;;;;4980686;28;25986;-60
2021/08/17 01:43:35;;;;;;;4.35;3.45;;;;;;;;;;4980951;28;24400;-59
2021/08/17 01:46:01;;;;;;;5.50;3.80;;;;;;;;;;4980574;28;25275;-59
2021/08/17 01:48:28;;;;;;;6.20;3.80;;;;;;;;;;4986047;28;24441;-60
2021/08/17 01:50:53;;;;;;;6.45;3.80;;;;;;;;;;4983931;28;24467;-60
2021/08/17 01:53:18;;;;;;;5.00;3.70;;;;;;;;;;4984265;28;24704;-60
2021/08/17 01:55:43;;;;;;;4.20;3.70;;;;;;;;;;4982315;28;24393;-60
2021/08/17 01:58:08;;;;;;;5.80;3.70;;;;;;;;;;4980657;28;24416;-60
2021/08/17 02:00:34;;;;;;;4.10;3.70;;;;;;;;;;4983735;28;24444;-61
2021/08/17 02:02:59;;;;;;;5.10;3.70;;;;;;;;;;4984125;28;24924;-62
2021/08/17 02:05:24;;;;;;;4.10;3.60;;;;;;;;;;4985949;28;24411;-61
2021/08/17 02:07:52;;;;;;;4.80;4.10;;;;;;;;;;4980367;28;24544;-60
2021/08/17 02:10:17;;;;;;;6.00;4.20;;;;;;;;;;4980273;28;24389;-61
2021/08/17 02:12:42;;;;;;;4.40;3.90;;;;;;;;;;4981839;28;24396;-61
2021/08/17 02:15:07;;;;;;;4.82;4.00;;;;;;;;;;4985806;28;24451;-61
2021/08/17 02:17:32;;;;;;;6.65;4.13;;;;;;;;;;4983801;28;25163;-60
2021/08/17 02:19:58;;;;;;;4.63;3.70;;;;;;;;;;4979693;28;24736;-61
2021/08/17 02:22:24;;;;;;;7.17;4.13;;;;;;;;;;4980209;28;24497;-60
2021/08/17 02:24:49;;;;;;;5.13;3.85;;;;;;;;;;4981861;28;24755;-60
2021/08/17 02:27:14;;;;;;;6.70;4.45;;;;;;;;;;4985672;28;24953;-60
2021/08/17 02:29:39;;;;;;;6.20;4.10;;;;;;;;;;4983235;28;24425;-60
2021/08/17 02:32:04;;;;;;;6.43;4.10;;;;;;;;;;4979916;28;24827;-60
2021/08/17 02:34:30;;;;;;;5.37;4.13;;;;;;;;;;4981663;28;24930;-60
2021/08/17 02:36:55;;;;;;;5.47;3.80;;;;;;;;;;4983282;28;24396;-60
2021/08/17 02:39:20;;;;;;;5.07;4.30;;;;;;;;;;4983365;28;24451;-61
2021/08/17 02:41:45;;;;;;;3.70;3.40;;;;;;;;;;4981478;28;24547;-60
2021/08/17 02:44:10;;;;;;;5.28;4.30;;;;;;;;;;4979628;28;24387;-61
2021/08/17 02:46:35;;;;;;;4.75;4.25;;;;;;;;;;4979654;28;24405;-60
2021/08/17 02:49:00;;;;;;;6.78;4.45;;;;;;;;;;4982872;28;25034;-59
2021/08/17 02:51:26;;;;;;;5.20;4.70;;;;;;;;;;4984839;28;24432;-59
2021/08/17 02:53:51;;;;;;;4.10;3.70;;;;;;;;;;4981130;28;24424;-60
2021/08/17 02:56:16;;;;;;;4.53;4.13;;;;;;;;;;4980291;28;24447;-61
2021/08/17 02:58:41;;;;;;;5.40;4.20;;;;;;;;;;4981022;28;24404;-60
2021/08/17 03:01:06;;;;;;;4.77;4.30;;;;;;;;;;4979274;28;24491;-60
2021/08/17 03:03:31;;;;;;;4.73;4.23;;;;;;;;;;4981159;28;24404;-62
2021/08/17 03:05:57;;;;;;;5.03;3.80;;;;;;;;;;4982918;28;24484;-61
2021/08/17 03:08:22;;;;;;;5.37;4.50;;;;;;;;;;4984602;28;24436;-60
2021/08/17 03:10:47;;;;;;;4.70;4.20;;;;;;;;;;4979074;28;24401;-60
2021/08/17 03:13:12;;;;;;;6.30;4.25;;;;;;;;;;4981224;28;24388;-60
2021/08/17 03:15:38;;;;;;;5.85;4.28;;;;;;;;;;4979365;28;24390;-60
2021/08/17 03:18:04;;;;;;;5.47;4.30;;;;;;;;;;4982642;28;24748;-60
2021/08/17 03:20:29;;;;;;;7.03;4.20;;;;;;;;;;4984707;28;24392;-60
2021/08/17 03:22:55;;;;;;;4.75;4.35;;;;;;;;;;4980788;28;24745;-60
2021/08/17 03:25:21;;;;;;;5.80;4.00;;;;;;;;;;4978950;28;24416;-60
2021/08/17 03:27:46;;;;;;;5.20;4.30;;;;;;;;;;4980799;28;24389;-59
2021/08/17 03:30:13;;;;;;;6.25;4.40;;;;;;;;;;4984418;28;24989;-60
2021/08/17 03:32:38;;;;;;;4.93;4.00;;;;;;;;;;4982820;28;24417;-59
2021/08/17 03:35:04;;;;;;;5.03;4.53;;;;;;;;;;4978903;28;24467;-59
2021/08/17 03:37:29;;;;;;;4.72;4.10;;;;;;;;;;4979240;28;24404;-59
2021/08/17 03:39:54;;;;;;;5.53;4.13;;;;;;;;;;4980439;28;24440;-59
2021/08/17 03:42:19;;;;;;;5.37;4.23;;;;;;;;;;4984381;28;24409;-59
2021/08/17 03:44:44;;;;;;;5.70;4.35;;;;;;;;;;4982279;28;24407;-60
2021/08/17 03:47:09;;;;;;;4.80;3.93;;;;;;;;;;4981144;28;24764;-60
2021/08/17 03:49:35;;;;;;;4.70;4.30;;;;;;;;;;4982890;28;24436;-60
2021/08/17 03:52:00;;;;;;;6.40;4.40;;;;;;;;;;4982701;28;24476;-60
2021/08/17 03:54:25;;;;;;;4.30;3.90;;;;;;;;;;4986199;28;24529;-60
2021/08/17 03:56:50;;;;;;;4.00;3.70;;;;;;;;;;4986245;28;24508;-60
2021/08/17 03:59:15;;;;;;;4.22;3.83;;;;;;;;;;4984553;28;24431;-61
2021/08/17 04:01:40;;;;;;;6.33;4.00;;;;;;;;;;4984283;28;24946;-61
2021/08/17 04:04:06;;;;;;;5.70;4.20;;;;;;;;;;4982668;28;24429;-60
2021/08/17 04:06:31;;;;;;;4.82;3.85;;;;;;;;;;4984721;28;24452;-59
2021/08/17 04:08:56;;;;;;;4.00;3.60;;;;;;;;;;4985845;28;24524;-61
2021/08/17 04:11:21;;;;;;;3.95;3.25;;;;;;;;;;4985971;28;24411;-60
2021/08/17 04:13:46;;;;;;;5.63;3.80;;;;;;;;;;4982661;28;24996;-61
2021/08/17 04:16:11;;;;;;;3.83;3.53;;;;;;;;;;4984391;28;24488;-60
2021/08/17 04:18:37;;;;;;;4.75;3.92;;;;;;;;;;4982412;28;24405;-59
2021/08/17 04:21:02;;;;;;;3.80;3.40;;;;;;;;;;4987348;28;24463;-60
2021/08/17 04:23:27;;;;;;;5.00;3.70;;;;;;;;;;4987732;28;24501;-60
2021/08/17 04:25:52;;;;;;;5.47;4.27;;;;;;;;;;4984020;28;24714;-60
2021/08/17 04:28:17;;;;;;;4.03;3.63;;;;;;;;;;4982189;28;24460;-59
2021/08/17 04:30:43;;;;;;;3.85;3.42;;;;;;;;;;4983452;28;24500;-61
2021/08/17 04:33:08;;;;;;;4.30;3.90;;;;;;;;;;4985467;28;24532;-60
2021/08/17 04:35:33;;;;;;;4.50;3.87;;;;;;;;;;4987656;28;24415;-60
2021/08/17 04:37:58;;;;;;;3.40;3.10;;;;;;;;;;4985617;28;24770;-60
2021/08/17 04:40:23;;;;;;;5.95;4.15;;;;;;;;;;4981646;28;24728;-61
2021/08/17 04:42:48;;;;;;;5.47;3.70;;;;;;;;;;4982140;28;24393;-59
2021/08/17 04:45:13;;;;;;;5.50;3.33;;;;;;;;;;4983486;28;24463;-59
2021/08/17 04:47:46;;;;;;;4.57;3.60;;;;;;;;;;4985507;28;24927;-59
2021/08/17 04:50:11;;;;;;;4.18;3.75;;;;;;;;;;4986963;28;24911;-60
2021/08/17 04:52:36;;;;;;;4.90;3.40;;;;;;;;;;4987042;28;25034;-60
2021/08/17 04:55:01;;;;;;;4.25;3.60;;;;;;;;;;4981377;28;24413;-59
2021/08/17 04:57:26;;;;;;;3.50;3.20;;;;;;;;;;4981516;28;24584;-59
2021/08/17 04:59:51;;;;;;;5.10;3.88;;;;;;;;;;4981502;28;24433;-59
2021/08/17 05:02:16;;;;;;;4.22;3.80;;;;;;;;;;4983285;28;24749;-58
2021/08/17 05:04:42;;;;;;;4.97;4.00;;;;;;;;;;4981957;28;24411;-59
2021/08/17 05:07:07;;;;;;;4.55;4.15;;;;;;;;;;4986736;28;24479;-60
2021/08/17 05:09:32;;;;;;;5.80;3.60;;;;;;;;;;4986809;28;24788;-60
2021/08/17 05:11:57;;;;;;;4.97;3.70;;;;;;;;;;4981375;28;24397;-60
2021/08/17 05:14:23;;;;;;;5.03;3.40;;;;;;;;;;4981305;28;24399;-60
2021/08/17 05:16:51;;;;;;;4.10;3.38;;;;;;;;;;4981332;28;24644;-60
2021/08/17 05:19:16;;;;;;;3.58;3.17;;;;;;;;;;4986389;28;24401;-60
2021/08/17 05:21:41;;;;;;;3.95;3.45;;;;;;;;;;4986341;28;24406;-61
2021/08/17 05:24:06;;;;;;;4.50;3.60;;;;;;;;;;4984464;28;24500;-59
2021/08/17 05:26:31;;;;;;;3.77;3.23;;;;;;;;;;4981140;28;24448;-60
2021/08/17 05:28:57;;;;;;;4.80;3.20;;;;;;;;;;4980878;28;24499;-59
2021/08/17 05:31:22;;;;;;;3.90;3.50;;;;;;;;;;4981013;28;24950;-59
2021/08/17 05:33:47;;;;;;;4.10;3.70;;;;;;;;;;4984461;28;24385;-59
2021/08/17 05:36:12;;;;;;;4.90;3.42;;;;;;;;;;4986448;28;24432;-60
2021/08/17 05:38:37;;;;;;;4.85;3.78;;;;;;;;;;4984321;28;24401;-60
2021/08/17 05:41:03;;;;;;;3.78;3.45;;;;;;;;;;4980744;28;24397;-60
2021/08/17 05:43:28;;;;;;;3.80;3.50;;;;;;;;;;4980476;28;24481;-60
2021/08/17 05:45:53;;;;;;;4.70;3.40;;;;;;;;;;4984336;28;24405;-61
2021/08/17 05:48:18;;;;;;;3.97;3.50;;;;;;;;;;4986067;28;24421;-60
2021/08/17 05:50:43;;;;;;;3.75;2.90;;;;;;;;;;4985817;28;24389;-61
2021/08/17 05:53:08;;;;;;;3.73;3.43;;;;;;;;;;4980299;28;24401;-60
2021/08/17 05:55:34;;;;;;;3.80;3.40;;;;;;;;;;4980802;28;24399;-60
2021/08/17 05:58:00;;;;;;;3.40;2.87;;;;;;;;;;4980514;28;25275;-60
2021/08/17 06:00:26;;;;;;;4.07;3.50;;;;;;;;;;4985929;28;24472;-60
2021/08/17 06:02:51;;;;;;;3.67;3.38;;;;;;;;;;4985293;28;24876;-65
2021/08/17 06:05:16;;;;;;;3.53;3.23;;;;;;;;;;4980852;28;24489;-60
2021/08/17 06:07:48;;;;;;;6.87;3.77;;;;;;;;;;4982301;28;24409;-60
2021/08/17 06:10:13;;;;;;;4.88;3.90;;;;;;;;;;4979656;28;24447;-60
2021/08/17 06:12:38;;;;;;;3.70;3.40;;;;;;;;;;4985343;28;24385;-60
2021/08/17 06:15:04;;;;;;;5.35;3.72;;;;;;;;;;4983486;28;24412;-60
2021/08/17 06:17:29;;;;;;;3.85;3.30;;;;;;;;;;4983903;28;24400;-60
2021/08/17 06:19:54;;;;;;;5.53;3.33;;;;;;;;;;4979919;28;24780;-60
2021/08/17 06:22:19;;;;;;;4.70;3.70;;;;;;;;;;4977006;28;24413;-60
2021/08/17 06:24:45;;;;;;;4.50;3.30;;;;;;;;;;4980625;28;24439;-60
2021/08/17 06:27:10;;;;;;;3.63;2.80;;;;;;;;;;4985041;28;24488;-60
2021/08/17 06:29:35;;;;;;;5.40;3.40;;;;;;;;;;4983270;28;24835;-61
2021/08/17 06:32:00;;;;;;;3.30;3.00;;;;;;;;;;4979445;28;24405;-61
2021/08/17 06:34:26;;;;;;;5.03;3.10;;;;;;;;;;4979794;28;24400;-61
2021/08/17 06:36:51;;;;;;;3.65;3.15;;;;;;;;;;4983372;28;24400;-61
2021/08/17 06:39:20;;;;;;;4.60;3.50;;;;;;;;;;4984634;28;24486;-60
2021/08/17 06:41:45;;;;;;;4.10;3.22;;;;;;;;;;4980967;28;24938;-61
2021/08/17 06:44:10;;;;;;;3.60;3.30;;;;;;;;;;4979523;28;24476;-60
2021/08/17 06:46:35;;;;;;;4.57;3.13;;;;;;;;;;4979283;28;24393;-60
2021/08/17 06:49:00;;;;;;;5.87;3.70;;;;;;;;;;4983008;28;24489;-60
2021/08/17 06:51:26;;;;;;;4.40;3.20;;;;;;;;;;4984307;28;24744;-60
2021/08/17 06:53:51;;;;;;;3.73;3.00;;;;;;;;;;4979170;28;24436;-61
2021/08/17 06:56:16;;;;;;;4.60;3.30;;;;;;;;;;4980976;28;24449;-60
2021/08/17 06:58:41;;;;;;;3.75;3.03;;;;;;;;;;4979053;28;24950;-60
2021/08/17 07:01:07;;;;;;;3.97;3.30;;;;;;;;;;4980745;28;24998;-60
2021/08/17 07:03:32;;;;;;;5.10;3.40;;;;;;;;;;4984405;28;24399;-60
2021/08/17 07:05:57;;;;;;;3.57;3.07;;;;;;;;;;4981427;28;24951;-61
2021/08/17 07:08:22;;;;;;;4.20;3.30;;;;;;;;;;4978670;28;24549;-61
2021/08/17 07:10:47;;;;;;;4.60;3.20;;;;;;;;;;4980795;28;24419;-60
2021/08/17 07:13:13;;;;;;;3.83;2.90;;;;;;;;;;4978607;28;24511;-61
2021/08/17 07:15:39;;;;;;;3.70;3.40;;;;;;;;;;4984652;28;24448;-60
2021/08/17 07:18:04;;;;;;;4.37;3.27;;;;;;;;;;4982229;28;24505;-60
2021/08/17 07:20:29;;;;;;;3.83;3.20;;;;;;;;;;4978437;28;24485;-60
2021/08/17 07:22:55;;;;;;;3.97;2.73;;;;;;;;;;4978431;28;24439;-61
2021/08/17 07:25:20;;;;;;;3.25;2.90;;;;;;;;;;4980498;28;24385;-60
2021/08/17 07:27:45;;;;;;;3.30;3.00;;;;;;;;;;4980676;28;24524;-61
2021/08/17 07:30:12;;;;;;;3.60;2.90;;;;;;;;;;4984152;28;24443;-61
2021/08/17 07:32:38;;;;;;;7.30;2.90;;;;;;;;;;4980457;28;24389;-61
2021/08/17 07:35:03;;;;;;;3.05;2.75;;;;;;;;;;4978820;28;24524;-61
2021/08/17 07:37:28;;;;;;;3.00;2.70;;;;;;;;;;4979079;28;24493;-61
2021/08/17 07:39:54;;;;;;;3.15;2.85;;;;;;;;;;4982455;28;24932;-61
2021/08/17 07:42:19;;;;;;;3.28;2.90;;;;;;;;;;4983838;28;24413;-61
2021/08/17 07:44:44;;;;;;;4.88;3.00;;;;;;;;;;4980673;28;24509;-61
2021/08/17 07:47:09;;;;;;;2.90;2.60;;;;;;;;;;4978856;28;24931;-61
2021/08/17 07:49:34;;;;;;;5.97;3.00;;;;;;;;;;4978808;28;24420;-61
2021/08/17 07:51:59;;;;;;;4.32;3.03;;;;;;;;;;4982470;28;24546;-61
2021/08/17 07:54:25;;;;;;;4.10;2.80;;;;;;;;;;4984129;28;24803;-61
2021/08/17 07:56:50;;;;;;;4.03;3.30;;;;;;;;;;4978762;28;24400;-61
2021/08/17 07:59:15;;;;;;;3.63;2.70;;;;;;;;;;4980170;28;24400;-62
2021/08/17 08:01:41;;;;;;;4.17;3.20;;;;;;;;;;4978523;28;24531;-62
2021/08/17 08:04:06;;;;;;;3.17;2.75;;;;;;;;;;4964737;28;24771;-62
2021/08/17 08:06:31;;;;;;;4.32;2.80;;;;;;;;;;4983793;28;25170;-62
2021/08/17 08:08:56;;;;;;;3.70;2.90;;;;;;;;;;4978543;28;24439;-61
2021/08/17 08:11:21;;;;;;;4.70;3.10;;;;;;;;;;4978028;28;24583;-61
2021/08/17 08:13:46;;;;;;;3.27;2.70;;;;;;;;;;4978607;28;24943;-61
2021/08/17 08:16:11;;;;;;;3.57;2.57;;;;;;;;;;4983636;28;24456;-61
2021/08/17 08:18:37;;;;;;;4.00;2.60;;;;;;;;;;4983927;28;24906;-61
2021/08/17 08:21:02;;;;;;;3.13;2.77;;;;;;;;;;4978255;28;24381;-60
2021/08/17 08:23:27;;;;;;;3.78;2.70;;;;;;;;;;4978360;28;24475;-61
2021/08/17 08:25:52;;;;;;;3.63;2.90;;;;;;;;;;4978311;28;24403;-61
2021/08/17 08:28:17;;;;;;;4.75;3.08;;;;;;;;;;4978289;28;24449;-61
2021/08/17 08:30:43;;;;;;;4.27;3.13;;;;;;;;;;4980117;28;24404;-60
2021/08/17 08:33:08;;;;;;;4.60;2.80;;;;;;;;;;4985191;28;24393;-61
2021/08/17 08:35:33;;;;;;;3.40;2.73;;;;;;;;;;4985599;28;24485;-61
2021/08/17 08:37:58;;;;;;;4.30;3.00;;;;;;;;;;4982101;28;24395;-61
2021/08/17 08:40:25;;;;;;;5.20;2.90;;;;;;;;;;4981341;28;24450;-61
2021/08/17 08:42:50;;;;;;;3.07;2.70;;;;;;;;;;4981574;28;24484;-62
2021/08/17 08:45:15;;;;;;;3.70;2.70;;;;;;;;;;4987463;28;24400;-61
2021/08/17 08:47:40;;;;;;;2.90;2.70;;;;;;;;;;4987209;28;24408;-61
2021/08/17 08:50:06;;;;;;;4.67;2.80;;;;;;;;;;4981743;28;24512;-61
2021/08/17 08:52:32;;;;;;;4.70;3.03;;;;;;;;;;4981337;28;24397;-61
2021/08/17 08:54:57;;;;;;;3.50;2.75;;;;;;;;;;4981656;28;24424;-61
2021/08/17 08:57:22;;;;;;;4.50;2.88;;;;;;;;;;4986824;28;24556;-61
2021/08/17 08:59:47;;;;;;;4.37;3.10;;;;;;;;;;4987150;28;24385;-61
2021/08/17 09:02:13;;;;;;;6.22;3.45;;;;;;;;;;4981429;28;24389;-61
2021/08/17 09:04:47;;;;;;;5.20;3.00;;;;;;;;;;4983373;28;24405;-60
2021/08/17 09:07:13;;;;;;;3.20;2.90;;;;;;;;;;4983202;28;24804;-60
2021/08/17 09:09:38;;;;;;;4.37;3.30;;;;;;;;;;4985052;28;25045;-61
2021/08/17 09:12:03;;;;;;;3.53;3.03;;;;;;;;;;4984551;28;24408;-61
2021/08/17 09:14:30;;;;;;;3.10;2.70;;;;;;;;;;4983129;28;24443;-61
2021/08/17 09:17:02;;;;;;;4.23;3.00;;;;;;;;;;4981519;28;24560;-61
2021/08/17 09:19:29;;;;;;;3.78;3.00;;;;;;;;;;4980957;28;25043;-60
2021/08/17 09:21:55;;;;;;;5.03;3.00;;;;;;;;;;4982926;28;25146;-61
2021/08/17 09:24:23;;;;;;;4.10;3.28;;;;;;;;;;4986315;28;24409;-61
2021/08/17 09:26:50;;;;;;;3.58;3.00;;;;;;;;;;4983318;28;24740;-62
2021/08/17 09:29:22;;;;;;;2.70;2.50;;;;;;;;;;4980937;28;24409;-61
2021/08/17 09:31:49;;;;;;;4.80;3.20;;;;;;;;;;4980910;28;24414;-61
2021/08/17 09:34:15;;;;;;;4.75;2.88;;;;;;;;;;4984466;28;24401;-61
2021/08/17 09:36:42;;;;;;;2.95;2.45;;;;;;;;;;4986424;28;24451;-60
2021/08/17 09:39:07;;;;;;;4.13;2.90;;;;;;;;;;4982832;28;24839;-61
2021/08/17 09:41:32;;;;;;;4.33;2.83;;;;;;;;;;4980988;28;25093;-60
2021/08/17 09:43:59;;;;;;;3.58;2.60;;;;;;;;;;4979657;28;24480;-60
2021/08/17 09:46:26;;;;;;;4.50;2.90;;;;;;;;;;4982223;28;24831;-61
2021/08/17 09:48:53;;;;;;;5.20;3.60;;;;;;;;;;4984147;28;25283;-60
2021/08/17 09:51:31;;;;;;;4.00;3.00;;;;;;;;;;4984168;28;24827;-60
2021/08/17 09:54:09;;;;;;;3.97;2.90;;;;;;;;;;4980432;28;24890;-59
2021/08/17 09:56:35;;;;;;;5.40;3.20;;;;;;;;;;4980636;28;24471;-60
2021/08/17 09:59:00;;;;;;;5.37;2.80;;;;;;;;;;4980429;28;24495;-61
2021/08/17 10:01:25;;;;;;;3.38;3.10;;;;;;;;;;4984134;28;24388;-60
2021/08/17 10:03:50;;;;;;;4.97;3.20;;;;;;;;;;4983603;28;24508;-61
2021/08/17 10:06:15;;;;;;;4.10;3.40;;;;;;;;;;4983953;28;24532;-59
2021/08/17 10:08:41;;;;;;;4.30;3.10;;;;;;;;;;4979975;28;24983;-60
2021/08/17 10:11:06;;;;;;;3.57;2.53;;;;;;;;;;4980494;28;24977;-60
2021/08/17 10:13:31;;;;;;;7.22;3.30;;;;;;;;;;4983416;28;24945;-60
2021/08/17 10:15:57;;;;;;;4.33;3.10;;;;;;;;;;4983865;28;25065;-59
2021/08/17 10:18:23;;;;;;;3.50;3.13;;;;;;;;;;4981170;28;24879;-59
2021/08/17 10:20:49;;;;;;;4.55;3.10;;;;;;;;;;4979845;28;24467;-60
2021/08/17 10:23:18;;;;;;;6.85;3.85;;;;;;;;;;4980494;28;24472;-60
2021/08/17 10:25:43;;;;;;;4.15;3.10;;;;;;;;;;4981503;28;24966;-60
2021/08/17 10:28:35;;;;;;;3.72;2.92;;;;;;;;;;4985283;28;24927;-60
2021/08/17 10:31:12;;;;;;;3.80;2.85;;;;;;;;;;4976693;28;24429;-60
2021/08/17 10:33:41;;;;;;;4.13;3.10;;;;;;;;;;4981046;28;24429;-60
2021/08/17 10:36:07;;;;;;;4.07;3.17;;;;;;;;;;4979671;28;24400;-60
2021/08/17 10:38:36;;;;;;;4.70;3.22;;;;;;;;;;4981432;28;24389;-59
2021/08/17 10:41:03;;;;;;;4.18;3.03;;;;;;;;;;4984968;28;24393;-60
2021/08/17 10:43:28;;;;;;;5.25;3.22;;;;;;;;;;4982782;28;25129;-60
2021/08/17 10:45:55;;;;;;;4.75;3.00;;;;;;;;;;4979474;28;25014;-60
2021/08/17 10:48:39;;;;;;;3.50;3.00;;;;;;;;;;4979305;28;24393;-60
2021/08/17 10:51:08;;;;;;;3.92;2.80;;;;;;;;;;4981206;28;24401;-60
2021/08/17 10:53:37;;;;;;;3.88;2.85;;;;;;;;;;4984514;28;24417;-60
2021/08/17 10:56:15;;;;;;;3.92;3.30;;;;;;;;;;4980635;28;24756;-60
2021/08/17 10:58:41;;;;;;;3.95;2.60;;;;;;;;;;4980879;28;24559;-60
2021/08/17 11:01:06;;;;;;;3.70;2.83;;;;;;;;;;4980697;28;24560;-59
2021/08/17 11:03:43;;;;;;;4.33;2.90;;;;;;;;;;4984310;28;24887;-60
2021/08/17 11:06:09;;;;;;;3.20;2.90;;;;;;;;;;4982168;28;24440;-61
2021/08/17 11:08:40;;;;;;;3.63;2.55;;;;;;;;;;4980382;28;22339;-60
2021/08/17 11:11:16;;;;;;;3.80;2.80;;;;;;;;;;4979287;28;24385;-60
2021/08/17 11:13:58;;;;;;;4.53;2.90;;;;;;;;;;4978552;28;24381;-61
2021/08/17 11:16:23;;;;;;;3.35;2.70;;;;;;;;;;4984485;28;24377;-60
2021/08/17 11:18:56;;;;;;;5.93;3.22;;;;;;;;;;4982947;28;24986;-61
2021/08/17 11:21:38;;;;;;;4.30;2.90;;;;;;;;;;4979159;28;24436;-60
2021/08/17 11:24:09;;;;;;;3.70;2.60;;;;;;;;;;4979087;28;24408;-61
2021/08/17 11:26:34;;;;;;;3.60;3.30;;;;;;;;;;4978787;28;24407;-60
2021/08/17 11:28:59;;;;;;;4.10;3.20;;;;;;;;;;4982838;28;25550;-60
2021/08/17 11:31:25;;;;;;;3.58;3.15;;;;;;;;;;4984096;28;24467;-61
2021/08/17 11:33:50;;;;;;;4.50;2.80;;;;;;;;;;4978753;28;24455;-60
2021/08/17 11:36:24;;;;;;;4.53;2.90;;;;;;;;;;4979189;28;24930;-60
2021/08/17 11:38:49;;;;;;;4.30;3.00;;;;;;;;;;4980467;28;24406;-59
2021/08/17 11:41:27;;;;;;;2.97;2.67;;;;;;;;;;4979386;28;24423;-60
2021/08/17 11:44:12;;;;;;;4.40;3.10;;;;;;;;;;4982381;28;24405;-60
2021/08/17 11:46:37;;;;;;;2.80;2.50;;;;;;;;;;4982404;28;24401;-59
2021/08/17 11:49:17;;;;;;;3.60;2.70;;;;;;;;;;4978695;28;25081;-59
2021/08/17 11:51:43;;;;;;;3.58;2.90;;;;;;;;;;4980144;28;24417;-60
2021/08/17 11:54:08;;;;;;;5.07;2.85;;;;;;;;;;4978407;28;24418;-59
2021/08/17 11:56:33;;;;;;;4.13;2.75;;;;;;;;;;4980441;28;24421;-59
2021/08/17 11:58:58;;;;;;;3.85;2.70;;;;;;;;;;4982435;28;24911;-60
2021/08/17 12:01:24;;;;;;;4.85;2.78;;;;;;;;;;4982130;28;24435;-61
2021/08/17 12:03:49;;;;;;;4.22;2.80;;;;;;;;;;4980180;28;24459;-61
2021/08/17 12:06:14;;;;;;;3.03;2.60;;;;;;;;;;4978998;28;24954;-61
2021/08/17 12:08:39;;;;;;;3.30;2.65;;;;;;;;;;4981071;28;24448;-60
2021/08/17 12:11:05;;;;;;;3.45;2.67;;;;;;;;;;4985949;28;24401;-61
2021/08/17 12:13:37;;;;;;;3.80;2.70;;;;;;;;;;4987919;28;24400;-60
2021/08/17 12:16:03;;;;;;;3.38;2.70;;;;;;;;;;4982151;28;24424;-60
2021/08/17 12:18:32;;;;;;;5.75;3.40;;;;;;;;;;4981947;28;24812;-60
2021/08/17 12:20:59;;;;;;;4.38;2.90;;;;;;;;;;4982507;28;24412;-60
2021/08/17 12:23:28;;;;;;;4.53;3.10;;;;;;;;;;4985275;28;24496;-60
2021/08/17 12:26:08;;;;;;;3.95;3.40;;;;;;;;;;4985686;28;24484;-60
2021/08/17 12:28:34;;;;;;;5.32;3.20;;;;;;;;;;4983833;28;24429;-60
2021/08/17 12:31:13;;;;;;;4.20;3.10;;;;;;;;;;4982041;28;24400;-60
2021/08/17 12:33:53;;;;;;;3.20;2.80;;;;;;;;;;4981673;28;24732;-61
2021/08/17 12:36:19;;;;;;;3.22;2.92;;;;;;;;;;4987345;28;24389;-60
2021/08/17 12:38:45;;;;;;;4.60;3.30;;;;;;;;;;4985300;28;24393;-60
2021/08/17 12:41:26;;;;;;;4.67;3.30;;;;;;;;;;4982290;28;24543;-61
2021/08/17 12:43:51;;;;;;;4.43;3.10;;;;;;;;;;4964206;28;24413;-61
2021/08/17 12:46:16;;;;;;;4.40;3.40;;;;;;;;;;4985230;28;24408;-61
2021/08/17 12:48:46;;;;;;;2.90;2.70;;;;;;;;;;4987073;28;24431;-60
2021/08/17 12:51:18;;;;;;;5.00;3.10;;;;;;;;;;4981977;28;24408;-59
2021/08/17 12:53:43;;;;;;;5.30;3.10;;;;;;;;;;4982927;28;24971;-60
2021/08/17 12:56:08;;;;;;;4.70;3.22;;;;;;;;;;4981689;28;24547;-61
2021/08/17 12:58:33;;;;;;;3.75;3.33;;;;;;;;;;4985250;28;24827;-61
2021/08/17 13:00:58;;;;;;;3.72;2.90;;;;;;;;;;4984613;28;24417;-61
2021/08/17 13:03:24;;;;;;;3.90;3.00;;;;;;;;;;4984901;28;24393;-61
2021/08/17 13:05:49;;;;;;;4.93;3.70;;;;;;;;;;4983121;28;24760;-61
2021/08/17 13:08:14;;;;;;;3.92;3.00;;;;;;;;;;4981767;28;24916;-61
2021/08/17 13:10:39;;;;;;;4.07;3.30;;;;;;;;;;4981302;28;24404;-61
2021/08/17 13:13:05;;;;;;;3.63;3.17;;;;;;;;;;4985233;28;24389;-61
2021/08/17 13:15:30;;;;;;;6.00;3.20;;;;;;;;;;4986476;28;24954;-61
2021/08/17 13:17:56;;;;;;;3.40;3.10;;;;;;;;;;4984871;28;24962;-61
2021/08/17 13:20:22;;;;;;;4.60;3.30;;;;;;;;;;4979964;28;24958;-61
2021/08/17 13:22:49;;;;;;;4.82;3.60;;;;;;;;;;4981443;28;24432;-61
2021/08/17 13:25:14;;;;;;;5.05;3.40;;;;;;;;;;4982876;28;24400;-61
2021/08/17 13:27:39;;;;;;;4.57;3.10;;;;;;;;;;4984853;28;24405;-60
2021/08/17 13:30:05;;;;;;;4.75;2.92;;;;;;;;;;4984499;28;24440;-61
2021/08/17 13:32:30;;;;;;;4.87;3.40;;;;;;;;;;4982703;28;24397;-61
2021/08/17 13:34:56;;;;;;;3.75;3.20;;;;;;;;;;4981050;28;24967;-61
2021/08/17 13:37:21;;;;;;;3.80;3.40;;;;;;;;;;4981133;28;24456;-60
2021/08/17 13:39:46;;;;;;;4.70;3.60;;;;;;;;;;4982563;28;24811;-60
2021/08/17 13:42:12;;;;;;;4.77;3.73;;;;;;;;;;4986207;28;25061;-61
2021/08/17 13:44:38;;;;;;;4.53;3.35;;;;;;;;;;4984237;28;24602;-61
2021/08/17 13:47:04;;;;;;;3.77;3.40;;;;;;;;;;4980680;28;24954;-61
2021/08/17 13:49:29;;;;;;;4.35;3.42;;;;;;;;;;4980758;28;24976;-61
2021/08/17 13:51:55;;;;;;;6.53;3.80;;;;;;;;;;4984169;28;24488;-60
2021/08/17 13:54:20;;;;;;;5.90;3.50;;;;;;;;;;4985522;28;24419;-60
2021/08/17 13:56:45;;;;;;;4.40;3.60;;;;;;;;;;4982326;28;24471;-62
2021/08/17 13:59:12;;;;;;;6.53;3.50;;;;;;;;;;4980554;28;24385;-60
2021/08/17 14:01:38;;;;;;;5.30;3.70;;;;;;;;;;4980722;28;24400;-60
2021/08/17 14:04:05;;;;;;;4.00;3.60;;;;;;;;;;4980135;28;24397;-59
2021/08/17 14:06:30;;;;;;;3.80;3.35;;;;;;;;;;4985651;28;25226;-59
2021/08/17 14:08:56;;;;;;;6.18;3.75;;;;;;;;;;4983342;28;24441;-60
2021/08/17 14:11:21;;;;;;;3.60;3.00;;;;;;;;;;4982166;28;24879;-60
2021/08/17 14:13:46;;;;;;;3.90;3.50;;;;;;;;;;4981435;28;24392;-59
2021/08/17 14:16:11;;;;;;;3.60;3.30;;;;;;;;;;4980459;28;24549;-59
2021/08/17 14:18:38;;;;;;;4.70;3.30;;;;;;;;;;4983493;28;24989;-61
2021/08/17 14:21:05;;;;;;;3.65;3.22;;;;;;;;;;4983728;28;24500;-61
2021/08/17 14:23:31;;;;;;;4.75;3.47;;;;;;;;;;4981961;28;24412;-60
2021/08/17 14:25:57;;;;;;;3.50;3.20;;;;;;;;;;4980110;28;24488;-60
2021/08/17 14:28:22;;;;;;;4.13;3.50;;;;;;;;;;4979669;28;24786;-61
2021/08/17 14:30:48;;;;;;;4.37;3.53;;;;;;;;;;4979385;28;24412;-61
2021/08/17 14:33:13;;;;;;;4.63;3.50;;;;;;;;;;4985004;28;24408;-61
2021/08/17 14:35:40;;;;;;;4.47;3.50;;;;;;;;;;4985221;28;24558;-61
2021/08/17 14:38:05;;;;;;;3.30;3.00;;;;;;;;;;4981563;28;25027;-60